SPZO

Alejandro Velasco Astete International Airport

Cusco, Peru
SPZO 230500Z 2306/2406 VRB02KT 9999 SCT040 BKN080 TX21/2319Z TN07/2310Z TEMPO 2310/2313 FEW025 SCT036 BKN080 FM231330 VRB03KT 9999 SCT043 BKN100 TEMPO 2318/2321 29010KT
Issued Valid From Valid To
Apr-23 @ 05:00 UTC
(5 hours ago)
Apr-23 @ 06:00 UTC
(4 hours ago)
Apr-24 @ 06:00 UTC
(in 20 hours)
Apr-23 @ 06:00 to Apr-23 @ 13:30
SPZO 230500Z 2306/2406 VRB02KT 9999 SCT040 BKN080 TX21/2319Z TN07/2310Z
Wind Visibility Clouds
Variable at 2 knots 10,000+ meters
  • Scattered at 4,000' AGL
  • Broken at 8,000' AGL
Temporary Apr-23 @ 10:00 to Apr-23 @ 13:00
TEMPO 2310/2313 FEW025 SCT036 BKN080
Clouds
  • Few at 2,500' AGL
  • Scattered at 3,600' AGL
  • Broken at 8,000' AGL
From Apr-23 @ 13:30 to Apr-24 @ 06:00
FM231330 VRB03KT 9999 SCT043 BKN100
Wind Visibility Clouds
Variable at 3 knots 10,000+ meters
  • Scattered at 4,300' AGL
  • Broken at 10,000' AGL
Temporary Apr-23 @ 18:00 to Apr-23 @ 21:00
TEMPO 2318/2321 29010KT
Wind
290° at 10 knots
SPZO 230500Z 2306/2406 VRB02KT 9999 SCT040 BKN080 TX21/2319Z TN07/2310Z TEMPO 2310/2313 FEW025 SCT036 BKN080 FM231330 VRB03KT 9999 SCT043 BKN100 TEMPO 2318/2321 29010KT
Issued Apr-23 @ 05:00 UTC
(5 hours ago)
Valid From Apr-23 @ 06:00 UTC
(4 hours ago)
Valid To Apr-24 @ 06:00 UTC
(in 20 hours)
Apr-23 @ 06:00 - Apr-23 @ 13:30
Wind Visibility
Variable at 2 knots 10,000+ meters
Clouds
  • Scattered at 4,000' AGL
  • Broken at 8,000' AGL
Temporary Apr-23 @ 10:00 - Apr-23 @ 13:00
Clouds
  • Few at 2,500' AGL
  • Scattered at 3,600' AGL
  • Broken at 8,000' AGL
From Apr-23 @ 13:30 - Apr-24 @ 06:00
Wind Visibility
Variable at 3 knots 10,000+ meters
Clouds
  • Scattered at 4,300' AGL
  • Broken at 10,000' AGL
Temporary Apr-23 @ 18:00 - Apr-23 @ 21:00
Wind
290° at 10 knots